Sterling/Rock Falls, Illinois
Current Conditions -  °F | °C
As of 2:35 AM on Friday 31 Oct 2014 (Local Time) from KSQI Reporting Station
Overcast Overcast  
Wind Chill: 38°   Ceiling: 3600
Heat Index: 45°   Visibility: 10mi
Dew Point: 30°   Wind: 14mph
Humidity: 57%   Direction: 350°N
Pressure: 30.11"   Gusts: 22mph
Location:  41.73°N, 89.68°W
Report Text: KSQI 310735Z AUTO 35012G19KT 10SM SCT029 OVC036 07/M01 A3011 RMK AO1
Loading
Personal Weather Stations






























Interactive Weather Map
Tropical Storm Tracking
New forecast layout! Learn more

10-Day Weather Forecast

Advertisements
Track Severe Weather on mobile